sensor_id;sensor_type;location;lat;lon;timestamp;temperature;humidity
55008;DHT22;40902;45.116;21.296;2024-02-15T00:01:00;102.40;2227.20
55008;DHT22;40902;45.116;21.296;2024-02-15T00:03:26;102.50;2227.20
55008;DHT22;40902;45.116;21.296;2024-02-15T00:05:52;102.50;2227.20
55008;DHT22;40902;45.116;21.296;2024-02-15T00:08:18;102.60;2227.20
55008;DHT22;40902;45.116;21.296;2024-02-15T00:10:46;102.60;2227.20
55008;DHT22;40902;45.116;21.296;2024-02-15T00:13:13;102.60;2227.20
55008;DHT22;40902;45.116;21.296;2024-02-15T00:15:40;102.60;2227.20
55008;DHT22;40902;45.116;21.296;2024-02-15T00:18:05;102.60;2227.20
55008;DHT22;40902;45.116;21.296;2024-02-15T00:20:32;102.60;2227.20
55008;DHT22;40902;45.116;21.296;2024-02-15T00:23:01;102.60;2227.20
55008;DHT22;40902;45.116;21.296;2024-02-15T00:25:26;102.60;2227.20
55008;DHT22;40902;45.116;21.296;2024-02-15T00:27:52;102.50;2227.20
55008;DHT22;40902;45.116;21.296;2024-02-15T00:30:18;102.50;2227.20
55008;DHT22;40902;45.116;21.296;2024-02-15T00:32:44;102.50;2227.20
55008;DHT22;40902;45.116;21.296;2024-02-15T00:35:11;102.50;2227.20
55008;DHT22;40902;45.116;21.296;2024-02-15T00:37:40;102.60;2227.20
55008;DHT22;40902;45.116;21.296;2024-02-15T00:40:06;102.60;2227.20
55008;DHT22;40902;45.116;21.296;2024-02-15T00:42:32;102.60;2227.20
55008;DHT22;40902;45.116;21.296;2024-02-15T00:44:58;102.50;2227.20
55008;DHT22;40902;45.116;21.296;2024-02-15T00:47:24;102.60;2227.20
55008;DHT22;40902;45.116;21.296;2024-02-15T00:49:50;102.60;2227.20
55008;DHT22;40902;45.116;21.296;2024-02-15T00:52:16;102.60;2227.20
55008;DHT22;40902;45.116;21.296;2024-02-15T00:54:45;102.70;2227.20
55008;DHT22;40902;45.116;21.296;2024-02-15T00:57:11;102.70;2227.20
55008;DHT22;40902;45.116;21.296;2024-02-15T00:59:37;102.80;2227.20
55008;DHT22;40902;45.116;21.296;2024-02-15T01:02:03;102.80;2227.20
55008;DHT22;40902;45.116;21.296;2024-02-15T01:04:29;102.70;2227.20
55008;DHT22;40902;45.116;21.296;2024-02-15T01:06:55;102.70;2227.20
55008;DHT22;40902;45.116;21.296;2024-02-15T01:09:22;102.70;2227.20
55008;DHT22;40902;45.116;21.296;2024-02-15T01:11:48;102.70;2227.20
55008;DHT22;40902;45.116;21.296;2024-02-15T01:14:14;102.80;2227.20
55008;DHT22;40902;45.116;21.296;2024-02-15T01:16:41;102.90;2227.20
55008;DHT22;40902;45.116;21.296;2024-02-15T01:19:07;102.80;2227.20
55008;DHT22;40902;45.116;21.296;2024-02-15T01:21:33;102.80;2227.20
55008;DHT22;40902;45.116;21.296;2024-02-15T01:23:59;102.80;2227.20
55008;DHT22;40902;45.116;21.296;2024-02-15T01:26:26;102.80;2227.20
55008;DHT22;40902;45.116;21.296;2024-02-15T01:28:52;102.70;2227.20
55008;DHT22;40902;45.116;21.296;2024-02-15T01:31:18;102.80;2227.20
55008;DHT22;40902;45.116;21.296;2024-02-15T01:33:45;102.90;2227.20
55008;DHT22;40902;45.116;21.296;2024-02-15T01:36:17;102.90;2227.20
55008;DHT22;40902;45.116;21.296;2024-02-15T01:38:44;102.80;2227.20
55008;DHT22;40902;45.116;21.296;2024-02-15T01:41:10;102.80;2227.20
55008;DHT22;40902;45.116;21.296;2024-02-15T01:43:36;102.90;2227.20
55008;DHT22;40902;45.116;21.296;2024-02-15T01:46:11;102.80;2227.20
55008;DHT22;40902;45.116;21.296;2024-02-15T01:48:39;102.80;2227.20
55008;DHT22;40902;45.116;21.296;2024-02-15T01:51:06;102.80;2227.20
55008;DHT22;40902;45.116;21.296;2024-02-15T01:53:32;102.80;2227.20
55008;DHT22;40902;45.116;21.296;2024-02-15T01:55:59;102.70;2227.20
55008;DHT22;40902;45.116;21.296;2024-02-15T01:58:29;102.60;2227.20
55008;DHT22;40902;45.116;21.296;2024-02-15T02:00:57;102.60;2227.20
55008;DHT22;40902;45.116;21.296;2024-02-15T02:03:24;102.60;2227.20
55008;DHT22;40902;45.116;21.296;2024-02-15T02:05:49;102.60;2227.20
55008;DHT22;40902;45.116;21.296;2024-02-15T02:08:15;102.50;2227.20
55008;DHT22;40902;45.116;21.296;2024-02-15T02:10:41;102.50;2227.20
55008;DHT22;40902;45.116;21.296;2024-02-15T02:13:09;102.60;2227.20
55008;DHT22;40902;45.116;21.296;2024-02-15T02:15:35;102.60;2227.20
55008;DHT22;40902;45.116;21.296;2024-02-15T02:18:03;102.50;2227.20
55008;DHT22;40902;45.116;21.296;2024-02-15T02:20:32;102.40;2227.20
55008;DHT22;40902;45.116;21.296;2024-02-15T02:23:08;102.40;2227.20
55008;DHT22;40902;45.116;21.296;2024-02-15T02:25:35;102.40;2227.20
55008;DHT22;40902;45.116;21.296;2024-02-15T02:28:01;102.40;2227.20
55008;DHT22;40902;45.116;21.296;2024-02-15T02:30:27;102.40;2227.20
55008;DHT22;40902;45.116;21.296;2024-02-15T02:32:58;102.40;2227.20
55008;DHT22;40902;45.116;21.296;2024-02-15T02:35:25;102.40;2227.20
55008;DHT22;40902;45.116;21.296;2024-02-15T02:37:51;102.40;2227.20
55008;DHT22;40902;45.116;21.296;2024-02-15T02:40:20;102.40;2227.20
55008;DHT22;40902;45.116;21.296;2024-02-15T02:45:19;102.50;2227.20
55008;DHT22;40902;45.116;21.296;2024-02-15T02:47:50;102.40;2227.20
55008;DHT22;40902;45.116;21.296;2024-02-15T02:50:17;102.40;2227.20
55008;DHT22;40902;45.116;21.296;2024-02-15T02:52:43;77.70;2227.20
55008;DHT22;40902;45.116;21.296;2024-02-15T02:55:10;77.70;2227.20
55008;DHT22;40902;45.116;21.296;2024-02-15T02:57:37;77.60;2227.20
55008;DHT22;40902;45.116;21.296;2024-02-15T03:00:04;77.60;2227.20
55008;DHT22;40902;45.116;21.296;2024-02-15T03:02:36;77.50;2227.20
55008;DHT22;40902;45.116;21.296;2024-02-15T03:05:03;77.60;2227.20
55008;DHT22;40902;45.116;21.296;2024-02-15T03:07:32;77.60;2227.20
55008;DHT22;40902;45.116;21.296;2024-02-15T03:09:58;77.60;2227.20
55008;DHT22;40902;45.116;21.296;2024-02-15T03:12:24;77.60;2227.20
55008;DHT22;40902;45.116;21.296;2024-02-15T03:14:52;77.60;2227.20
55008;DHT22;40902;45.116;21.296;2024-02-15T03:17:17;77.60;2227.20
55008;DHT22;40902;45.116;21.296;2024-02-15T03:19:43;77.70;2227.20
55008;DHT22;40902;45.116;21.296;2024-02-15T03:22:09;77.70;2227.20
55008;DHT22;40902;45.116;21.296;2024-02-15T03:24:35;77.70;2227.20
55008;DHT22;40902;45.116;21.296;2024-02-15T03:27:01;77.70;2227.20
55008;DHT22;40902;45.116;21.296;2024-02-15T03:29:27;77.60;2227.20
55008;DHT22;40902;45.116;21.296;2024-02-15T03:31:54;77.60;2227.20
55008;DHT22;40902;45.116;21.296;2024-02-15T03:34:21;77.50;2227.20
55008;DHT22;40902;45.116;21.296;2024-02-15T03:36:47;77.50;2227.20
55008;DHT22;40902;45.116;21.296;2024-02-15T03:39:19;77.50;2227.20
55008;DHT22;40902;45.116;21.296;2024-02-15T03:41:45;77.50;2227.20
55008;DHT22;40902;45.116;21.296;2024-02-15T03:44:14;77.30;2227.20
55008;DHT22;40902;45.116;21.296;2024-02-15T03:46:40;77.20;2227.20
55008;DHT22;40902;45.116;21.296;2024-02-15T03:49:06;77.20;2227.20
55008;DHT22;40902;45.116;21.296;2024-02-15T03:51:34;77.10;2227.20
55008;DHT22;40902;45.116;21.296;2024-02-15T03:54:00;77.10;2227.20
55008;DHT22;40902;45.116;21.296;2024-02-15T03:56:26;77.10;2227.20
55008;DHT22;40902;45.116;21.296;2024-02-15T03:58:51;77.10;2227.20
55008;DHT22;40902;45.116;21.296;2024-02-15T04:01:17;77.10;2227.20
55008;DHT22;40902;45.116;21.296;2024-02-15T04:03:43;77.10;2227.20
55008;DHT22;40902;45.116;21.296;2024-02-15T04:06:09;77.00;2227.20
55008;DHT22;40902;45.116;21.296;2024-02-15T04:08:36;77.00;2227.20
55008;DHT22;40902;45.116;21.296;2024-02-15T04:11:05;77.00;2227.20
55008;DHT22;40902;45.116;21.296;2024-02-15T04:13:35;77.00;2227.20
55008;DHT22;40902;45.116;21.296;2024-02-15T04:16:01;77.00;2227.20
55008;DHT22;40902;45.116;21.296;2024-02-15T04:18:27;77.00;2227.20
55008;DHT22;40902;45.116;21.296;2024-02-15T04:20:55;76.90;2227.20
55008;DHT22;40902;45.116;21.296;2024-02-15T04:23:20;76.80;2227.20
55008;DHT22;40902;45.116;21.296;2024-02-15T04:25:46;76.90;2227.20
55008;DHT22;40902;45.116;21.296;2024-02-15T04:28:16;76.90;2227.20
55008;DHT22;40902;45.116;21.296;2024-02-15T04:30:42;76.90;2227.20
55008;DHT22;40902;45.116;21.296;2024-02-15T04:33:08;77.00;2227.20
55008;DHT22;40902;45.116;21.296;2024-02-15T04:35:34;77.00;2227.20
55008;DHT22;40902;45.116;21.296;2024-02-15T04:38:00;76.90;2227.20
55008;DHT22;40902;45.116;21.296;2024-02-15T04:40:26;77.00;2227.20
55008;DHT22;40902;45.116;21.296;2024-02-15T04:42:52;77.00;2227.20
55008;DHT22;40902;45.116;21.296;2024-02-15T04:45:18;76.90;2227.20
55008;DHT22;40902;45.116;21.296;2024-02-15T04:47:47;77.00;2227.20
55008;DHT22;40902;45.116;21.296;2024-02-15T04:50:16;77.00;2227.20
55008;DHT22;40902;45.116;21.296;2024-02-15T04:52:43;77.00;2227.20
55008;DHT22;40902;45.116;21.296;2024-02-15T04:55:11;77.00;2227.20
55008;DHT22;40902;45.116;21.296;2024-02-15T04:57:38;76.90;2227.20
55008;DHT22;40902;45.116;21.296;2024-02-15T05:00:09;76.90;2227.20
55008;DHT22;40902;45.116;21.296;2024-02-15T05:02:37;76.90;2227.20
55008;DHT22;40902;45.116;21.296;2024-02-15T05:05:07;76.90;2227.20
55008;DHT22;40902;45.116;21.296;2024-02-15T05:07:34;76.90;2227.20
55008;DHT22;40902;45.116;21.296;2024-02-15T05:10:03;76.90;2227.20
55008;DHT22;40902;45.116;21.296;2024-02-15T05:12:32;77.00;2227.20
55008;DHT22;40902;45.116;21.296;2024-02-15T05:14:59;77.00;2227.20
55008;DHT22;40902;45.116;21.296;2024-02-15T05:17:25;77.00;2227.20
55008;DHT22;40902;45.116;21.296;2024-02-15T05:19:50;77.00;2227.20
55008;DHT22;40902;45.116;21.296;2024-02-15T05:22:16;77.10;2227.20
55008;DHT22;40902;45.116;21.296;2024-02-15T05:24:44;77.10;2227.20
55008;DHT22;40902;45.116;21.296;2024-02-15T05:27:09;77.10;2227.20
55008;DHT22;40902;45.116;21.296;2024-02-15T05:29:35;77.10;2227.20
55008;DHT22;40902;45.116;21.296;2024-02-15T05:32:01;77.10;2227.20
55008;DHT22;40902;45.116;21.296;2024-02-15T05:34:27;77.10;2227.20
55008;DHT22;40902;45.116;21.296;2024-02-15T05:36:56;77.20;2227.20
55008;DHT22;40902;45.116;21.296;2024-02-15T05:39:22;77.30;2227.20
55008;DHT22;40902;45.116;21.296;2024-02-15T05:41:48;77.40;2227.20
55008;DHT22;40902;45.116;21.296;2024-02-15T05:44:14;77.50;2227.20
55008;DHT22;40902;45.116;21.296;2024-02-15T05:46:44;77.60;2227.20
55008;DHT22;40902;45.116;21.296;2024-02-15T05:49:10;77.60;2227.20
55008;DHT22;40902;45.116;21.296;2024-02-15T05:51:41;77.70;2227.20
55008;DHT22;40902;45.116;21.296;2024-02-15T05:54:07;102.40;2227.20
55008;DHT22;40902;45.116;21.296;2024-02-15T05:56:33;102.40;2227.20
55008;DHT22;40902;45.116;21.296;2024-02-15T05:58:59;102.50;2227.20
55008;DHT22;40902;45.116;21.296;2024-02-15T06:01:24;102.60;2227.20
55008;DHT22;40902;45.116;21.296;2024-02-15T06:03:50;102.60;2227.20
55008;DHT22;40902;45.116;21.296;2024-02-15T06:06:20;102.70;2227.20
55008;DHT22;40902;45.116;21.296;2024-02-15T06:08:47;102.80;2227.20
55008;DHT22;40902;45.116;21.296;2024-02-15T06:11:18;102.90;2227.20
55008;DHT22;40902;45.116;21.296;2024-02-15T06:13:46;102.90;2227.20
55008;DHT22;40902;45.116;21.296;2024-02-15T06:16:12;102.80;2227.20
55008;DHT22;40902;45.116;21.296;2024-02-15T06:18:37;103.00;2227.20
55008;DHT22;40902;45.116;21.296;2024-02-15T06:21:03;103.10;2227.20
55008;DHT22;40902;45.116;21.296;2024-02-15T06:23:29;103.10;2227.20
55008;DHT22;40902;45.116;21.296;2024-02-15T06:25:57;103.20;2227.20
55008;DHT22;40902;45.116;21.296;2024-02-15T06:28:29;103.20;2227.20
55008;DHT22;40902;45.116;21.296;2024-02-15T06:31:14;103.30;2227.20
55008;DHT22;40902;45.116;21.296;2024-02-15T06:33:58;128.00;2252.80
55008;DHT22;40902;45.116;21.296;2024-02-15T06:36:47;128.10;2252.80
55008;DHT22;40902;45.116;21.296;2024-02-15T06:39:32;128.20;2252.80
55008;DHT22;40902;45.116;21.296;2024-02-15T06:42:09;128.20;2252.80
55008;DHT22;40902;45.116;21.296;2024-02-15T06:44:37;128.30;2252.80
55008;DHT22;40902;45.116;21.296;2024-02-15T06:47:04;128.30;2252.80
55008;DHT22;40902;45.116;21.296;2024-02-15T06:49:29;128.30;2252.80
55008;DHT22;40902;45.116;21.296;2024-02-15T06:51:55;128.40;2252.80
55008;DHT22;40902;45.116;21.296;2024-02-15T06:54:21;128.50;2252.80
55008;DHT22;40902;45.116;21.296;2024-02-15T06:56:48;128.50;2252.80
55008;DHT22;40902;45.116;21.296;2024-02-15T06:59:14;128.50;2252.80
55008;DHT22;40902;45.116;21.296;2024-02-15T07:01:42;128.60;2252.80
55008;DHT22;40902;45.116;21.296;2024-02-15T07:04:09;128.60;2252.80
55008;DHT22;40902;45.116;21.296;2024-02-15T07:06:38;128.60;2252.80
55008;DHT22;40902;45.116;21.296;2024-02-15T07:09:07;128.70;2252.80
55008;DHT22;40902;45.116;21.296;2024-02-15T07:11:33;128.70;2252.80
55008;DHT22;40902;45.116;21.296;2024-02-15T07:14:02;128.80;2252.80
55008;DHT22;40902;45.116;21.296;2024-02-15T07:16:30;128.80;2252.80
55008;DHT22;40902;45.116;21.296;2024-02-15T07:18:56;128.90;2252.80
55008;DHT22;40902;45.116;21.296;2024-02-15T07:21:22;128.90;2252.80
55008;DHT22;40902;45.116;21.296;2024-02-15T07:23:55;128.90;2252.80
55008;DHT22;40902;45.116;21.296;2024-02-15T07:26:22;153.60;2252.80
55008;DHT22;40902;45.116;21.296;2024-02-15T07:28:54;153.60;2252.80
55008;DHT22;40902;45.116;21.296;2024-02-15T07:31:20;153.60;2252.80
55008;DHT22;40902;45.116;21.296;2024-02-15T07:33:47;153.60;2252.80
55008;DHT22;40902;45.116;21.296;2024-02-15T07:36:18;153.70;2252.80
55008;DHT22;40902;45.116;21.296;2024-02-15T07:38:44;153.70;2252.80
55008;DHT22;40902;45.116;21.296;2024-02-15T07:41:11;153.80;2252.80
55008;DHT22;40902;45.116;21.296;2024-02-15T07:43:38;153.80;2252.80
55008;DHT22;40902;45.116;21.296;2024-02-15T07:46:05;153.90;2252.80
55008;DHT22;40902;45.116;21.296;2024-02-15T07:48:30;153.90;2252.80
55008;DHT22;40902;45.116;21.296;2024-02-15T07:50:57;154.10;2252.80
55008;DHT22;40902;45.116;21.296;2024-02-15T07:53:24;154.10;2252.80
55008;DHT22;40902;45.116;21.296;2024-02-15T07:55:53;154.20;2252.80
55008;DHT22;40902;45.116;21.296;2024-02-15T07:58:18;154.30;2252.80
55008;DHT22;40902;45.116;21.296;2024-02-15T08:00:47;154.50;2252.80
55008;DHT22;40902;45.116;21.296;2024-02-15T08:03:13;179.20;2252.80
55008;DHT22;40902;45.116;21.296;2024-02-15T08:05:40;179.30;2252.80
55008;DHT22;40902;45.116;21.296;2024-02-15T08:08:06;179.30;2252.80
55008;DHT22;40902;45.116;21.296;2024-02-15T08:10:31;179.50;2252.80
55008;DHT22;40902;45.116;21.296;2024-02-15T08:12:58;179.60;2252.80
55008;DHT22;40902;45.116;21.296;2024-02-15T08:15:24;179.70;2252.80
55008;DHT22;40902;45.116;21.296;2024-02-15T08:17:53;179.90;2252.80
55008;DHT22;40902;45.116;21.296;2024-02-15T08:20:20;180.00;2252.80
55008;DHT22;40902;45.116;21.296;2024-02-15T08:22:49;204.80;2252.80
55008;DHT22;40902;45.116;21.296;2024-02-15T08:25:15;204.80;2252.80
55008;DHT22;40902;45.116;21.296;2024-02-15T08:27:42;204.90;2252.80
55008;DHT22;40902;45.116;21.296;2024-02-15T08:30:10;204.80;2252.80
55008;DHT22;40902;45.116;21.296;2024-02-15T08:32:40;204.90;2252.80
55008;DHT22;40902;45.116;21.296;2024-02-15T08:35:10;204.80;2252.80
55008;DHT22;40902;45.116;21.296;2024-02-15T08:37:36;180.10;2252.80
55008;DHT22;40902;45.116;21.296;2024-02-15T08:40:04;180.00;2252.80
55008;DHT22;40902;45.116;21.296;2024-02-15T08:42:44;180.00;2252.80
55008;DHT22;40902;45.116;21.296;2024-02-15T08:45:11;180.00;2252.80
55008;DHT22;40902;45.116;21.296;2024-02-15T08:47:41;180.10;2252.80
55008;DHT22;40902;45.116;21.296;2024-02-15T08:50:09;204.90;2252.80
55008;DHT22;40902;45.116;21.296;2024-02-15T08:52:36;204.80;2252.80
55008;DHT22;40902;45.116;21.296;2024-02-15T08:55:09;205.00;2252.80
55008;DHT22;40902;45.116;21.296;2024-02-15T08:57:35;205.10;2252.80
55008;DHT22;40902;45.116;21.296;2024-02-15T09:00:05;205.30;2252.80
55008;DHT22;40902;45.116;21.296;2024-02-15T09:02:45;205.30;2252.80
55008;DHT22;40902;45.116;21.296;2024-02-15T09:05:11;205.30;2252.80
55008;DHT22;40902;45.116;21.296;2024-02-15T09:07:43;205.20;2252.80
55008;DHT22;40902;45.116;21.296;2024-02-15T09:10:10;205.10;2252.80
55008;DHT22;40902;45.116;21.296;2024-02-15T09:12:37;205.20;2252.80
55008;DHT22;40902;45.116;21.296;2024-02-15T09:15:08;205.40;2252.80
55008;DHT22;40902;45.116;21.296;2024-02-15T09:17:37;205.40;2252.80
55008;DHT22;40902;45.116;21.296;2024-02-15T09:20:14;205.50;2252.80
55008;DHT22;40902;45.116;21.296;2024-02-15T09:22:51;205.60;2252.80
55008;DHT22;40902;45.116;21.296;2024-02-15T09:25:17;205.60;2252.80
55008;DHT22;40902;45.116;21.296;2024-02-15T09:27:44;205.70;2252.80
55008;DHT22;40902;45.116;21.296;2024-02-15T09:30:11;205.70;2252.80
55008;DHT22;40902;45.116;21.296;2024-02-15T09:32:38;230.40;2252.80
55008;DHT22;40902;45.116;21.296;2024-02-15T09:35:05;230.40;2252.80
55008;DHT22;40902;45.116;21.296;2024-02-15T09:37:47;230.60;2252.80
55008;DHT22;40902;45.116;21.296;2024-02-15T09:40:18;230.70;2252.80
55008;DHT22;40902;45.116;21.296;2024-02-15T09:42:44;231.00;2252.80
55008;DHT22;40902;45.116;21.296;2024-02-15T09:45:12;231.10;2252.80
55008;DHT22;40902;45.116;21.296;2024-02-15T09:47:38;256.00;2252.80
55008;DHT22;40902;45.116;21.296;2024-02-15T09:50:15;256.00;2252.80
55008;DHT22;40902;45.116;21.296;2024-02-15T09:52:53;256.20;2252.80
55008;DHT22;40902;45.116;21.296;2024-02-15T09:55:22;256.40;2252.80
55008;DHT22;40902;45.116;21.296;2024-02-15T09:57:50;256.50;2252.80
55008;DHT22;40902;45.116;21.296;2024-02-15T10:00:16;256.50;2252.80
55008;DHT22;40902;45.116;21.296;2024-02-15T10:02:44;256.40;2252.80
55008;DHT22;40902;45.116;21.296;2024-02-15T10:05:11;256.30;2252.80
55008;DHT22;40902;45.116;21.296;2024-02-15T10:07:41;256.20;2252.80
55008;DHT22;40902;45.116;21.296;2024-02-15T10:10:20;256.30;2252.80
55008;DHT22;40902;45.116;21.296;2024-02-15T10:12:50;256.50;2252.80
55008;DHT22;40902;45.116;21.296;2024-02-15T10:15:30;256.70;2252.80
55008;DHT22;40902;45.116;21.296;2024-02-15T10:17:57;256.70;2252.80
55008;DHT22;40902;45.116;21.296;2024-02-15T10:20:24;256.90;2252.80
55008;DHT22;40902;45.116;21.296;2024-02-15T10:23:15;281.60;2278.40
55008;DHT22;40902;45.116;21.296;2024-02-15T10:25:43;281.70;2278.40
55008;DHT22;40902;45.116;21.296;2024-02-15T10:28:11;256.90;2252.80
55008;DHT22;40902;45.116;21.296;2024-02-15T10:30:43;256.90;2252.80
55008;DHT22;40902;45.116;21.296;2024-02-15T10:35:49;256.80;2252.80
55008;DHT22;40902;45.116;21.296;2024-02-15T10:38:15;256.90;2252.80
55008;DHT22;40902;45.116;21.296;2024-02-15T10:40:41;256.80;2252.80
55008;DHT22;40902;45.116;21.296;2024-02-15T10:43:08;256.80;2252.80
55008;DHT22;40902;45.116;21.296;2024-02-15T10:45:39;256.90;2252.80
55008;DHT22;40902;45.116;21.296;2024-02-15T10:48:10;256.90;2252.80
55008;DHT22;40902;45.116;21.296;2024-02-15T10:50:39;256.90;2252.80
55008;DHT22;40902;45.116;21.296;2024-02-15T10:53:23;281.70;2278.40
55008;DHT22;40902;45.116;21.296;2024-02-15T10:56:18;281.70;2278.40
55008;DHT22;40902;45.116;21.296;2024-02-15T10:58:59;281.80;2278.40
55008;DHT22;40902;45.116;21.296;2024-02-15T11:01:27;281.90;2278.40
55008;DHT22;40902;45.116;21.296;2024-02-15T11:03:59;282.00;2252.80
55008;DHT22;40902;45.116;21.296;2024-02-15T11:06:27;282.10;2278.40
55008;DHT22;40902;45.116;21.296;2024-02-15T11:08:55;282.10;2278.40
55008;DHT22;40902;45.116;21.296;2024-02-15T11:11:22;282.20;2278.40
55008;DHT22;40902;45.116;21.296;2024-02-15T11:13:49;282.30;2278.40
55008;DHT22;40902;45.116;21.296;2024-02-15T11:16:41;282.30;2278.40
55008;DHT22;40902;45.116;21.296;2024-02-15T11:19:06;282.30;2227.20
55008;DHT22;40902;45.116;21.296;2024-02-15T11:21:54;282.40;2252.80
55008;DHT22;40902;45.116;21.296;2024-02-15T11:24:30;282.40;2227.20
55008;DHT22;40902;45.116;21.296;2024-02-15T11:27:03;282.50;2227.20
55008;DHT22;40902;45.116;21.296;2024-02-15T11:32:55;282.50;2252.80
55008;DHT22;40902;45.116;21.296;2024-02-15T11:35:23;282.50;2252.80
55008;DHT22;40902;45.116;21.296;2024-02-15T11:42:49;282.40;2201.60
55008;DHT22;40902;45.116;21.296;2024-02-15T11:45:16;282.40;2176.00
55008;DHT22;40902;45.116;21.296;2024-02-15T11:47:50;282.50;2176.00
55008;DHT22;40902;45.116;21.296;2024-02-15T11:50:17;307.20;2176.00
55008;DHT22;40902;45.116;21.296;2024-02-15T11:52:51;307.40;2278.40
55008;DHT22;40902;45.116;21.296;2024-02-15T11:55:22;307.40;2227.20
55008;DHT22;40902;45.116;21.296;2024-02-15T11:57:58;307.30;2227.20
55008;DHT22;40902;45.116;21.296;2024-02-15T12:00:33;307.60;2201.60
55008;DHT22;40902;45.116;21.296;2024-02-15T12:03:17;307.60;2176.00
55008;DHT22;40902;45.116;21.296;2024-02-15T12:06:02;307.80;2124.80
55008;DHT22;40902;45.116;21.296;2024-02-15T12:08:47;308.10;2150.40
55008;DHT22;40902;45.116;21.296;2024-02-15T12:11:32;308.10;2124.80
55008;DHT22;40902;45.116;21.296;2024-02-15T12:14:17;332.80;2124.80
55008;DHT22;40902;45.116;21.296;2024-02-15T12:17:05;332.90;2124.80
55008;DHT22;40902;45.116;21.296;2024-02-15T12:19:52;332.90;2124.80
55008;DHT22;40902;45.116;21.296;2024-02-15T12:22:34;332.90;2150.40
55008;DHT22;40902;45.116;21.296;2024-02-15T12:25:02;332.90;2124.80
55008;DHT22;40902;45.116;21.296;2024-02-15T12:27:37;332.80;2124.80
55008;DHT22;40902;45.116;21.296;2024-02-15T12:30:05;308.00;2150.40
55008;DHT22;40902;45.116;21.296;2024-02-15T12:32:32;332.80;2176.00
55008;DHT22;40902;45.116;21.296;2024-02-15T12:35:12;308.10;2124.80
55008;DHT22;40902;45.116;21.296;2024-02-15T12:37:43;332.80;2124.80
55008;DHT22;40902;45.116;21.296;2024-02-15T12:40:19;332.90;2099.20
55008;DHT22;40902;45.116;21.296;2024-02-15T12:42:46;332.80;2099.20
55008;DHT22;40902;45.116;21.296;2024-02-15T12:45:18;333.00;2099.20
55008;DHT22;40902;45.116;21.296;2024-02-15T12:47:49;333.10;2099.20
55008;DHT22;40902;45.116;21.296;2024-02-15T12:50:19;333.00;2124.80
55008;DHT22;40902;45.116;21.296;2024-02-15T12:52:48;333.20;2099.20
55008;DHT22;40902;45.116;21.296;2024-02-15T12:55:19;333.20;2048.00
55008;DHT22;40902;45.116;21.296;2024-02-15T12:57:48;333.20;2048.00
55008;DHT22;40902;45.116;21.296;2024-02-15T13:00:23;333.30;2073.60
55008;DHT22;40902;45.116;21.296;2024-02-15T13:02:54;333.20;2073.60
55008;DHT22;40902;45.116;21.296;2024-02-15T13:05:21;333.40;2048.00
55008;DHT22;40902;45.116;21.296;2024-02-15T13:07:51;333.50;2048.00
55008;DHT22;40902;45.116;21.296;2024-02-15T13:10:18;333.40;2022.40
55008;DHT22;40902;45.116;21.296;2024-02-15T13:12:44;333.50;2022.40
55008;DHT22;40902;45.116;21.296;2024-02-15T13:15:13;333.50;2048.00
55008;DHT22;40902;45.116;21.296;2024-02-15T13:17:53;333.70;2022.40
55008;DHT22;40902;45.116;21.296;2024-02-15T13:20:20;333.70;1996.80
55008;DHT22;40902;45.116;21.296;2024-02-15T13:22:52;333.60;1996.80
55008;DHT22;40902;45.116;21.296;2024-02-15T13:25:19;333.70;1996.80
55008;DHT22;40902;45.116;21.296;2024-02-15T13:27:46;333.70;2022.40
55008;DHT22;40902;45.116;21.296;2024-02-15T13:30:12;333.70;2048.00
55008;DHT22;40902;45.116;21.296;2024-02-15T13:32:38;333.60;2022.40
55008;DHT22;40902;45.116;21.296;2024-02-15T13:35:05;333.60;2022.40
55008;DHT22;40902;45.116;21.296;2024-02-15T13:37:47;333.70;1996.80
55008;DHT22;40902;45.116;21.296;2024-02-15T13:40:13;333.70;1996.80
55008;DHT22;40902;45.116;21.296;2024-02-15T13:42:45;333.70;1996.80
55008;DHT22;40902;45.116;21.296;2024-02-15T13:45:18;333.70;1996.80
55008;DHT22;40902;45.116;21.296;2024-02-15T13:47:45;333.70;1996.80
55008;DHT22;40902;45.116;21.296;2024-02-15T13:50:11;333.70;1971.20
55008;DHT22;40902;45.116;21.296;2024-02-15T13:52:46;333.60;1971.20
55008;DHT22;40902;45.116;21.296;2024-02-15T13:55:15;333.60;1971.20
55008;DHT22;40902;45.116;21.296;2024-02-15T13:57:41;333.70;1971.20
55008;DHT22;40902;45.116;21.296;2024-02-15T14:00:10;333.50;1996.80
55008;DHT22;40902;45.116;21.296;2024-02-15T14:02:52;333.60;1996.80
55008;DHT22;40902;45.116;21.296;2024-02-15T14:05:25;333.60;1971.20
55008;DHT22;40902;45.116;21.296;2024-02-15T14:07:55;333.70;1996.80
55008;DHT22;40902;45.116;21.296;2024-02-15T14:10:22;333.70;1996.80
55008;DHT22;40902;45.116;21.296;2024-02-15T14:12:48;358.40;1945.60
55008;DHT22;40902;45.116;21.296;2024-02-15T14:15:16;358.40;1945.60
55008;DHT22;40902;45.116;21.296;2024-02-15T14:17:42;333.70;1945.60
55008;DHT22;40902;45.116;21.296;2024-02-15T14:20:09;333.70;1971.20
55008;DHT22;40902;45.116;21.296;2024-02-15T14:22:48;358.40;1971.20
55008;DHT22;40902;45.116;21.296;2024-02-15T14:25:23;333.70;1971.20
55008;DHT22;40902;45.116;21.296;2024-02-15T14:27:49;333.60;1971.20
55008;DHT22;40902;45.116;21.296;2024-02-15T14:30:14;333.60;1971.20
55008;DHT22;40902;45.116;21.296;2024-02-15T14:33:06;333.60;1971.20
55008;DHT22;40902;45.116;21.296;2024-02-15T14:35:37;333.50;1996.80
55008;DHT22;40902;45.116;21.296;2024-02-15T14:38:10;333.50;1996.80
55008;DHT22;40902;45.116;21.296;2024-02-15T14:43:03;333.50;2022.40
55008;DHT22;40902;45.116;21.296;2024-02-15T14:45:36;333.50;2022.40
55008;DHT22;40902;45.116;21.296;2024-02-15T14:48:06;333.50;2022.40
55008;DHT22;40902;45.116;21.296;2024-02-15T14:50:35;333.50;2022.40
55008;DHT22;40902;45.116;21.296;2024-02-15T14:53:01;333.50;2022.40
55008;DHT22;40902;45.116;21.296;2024-02-15T14:55:26;333.50;2048.00
55008;DHT22;40902;45.116;21.296;2024-02-15T14:57:54;333.50;2048.00
55008;DHT22;40902;45.116;21.296;2024-02-15T15:00:20;333.40;2048.00
55008;DHT22;40902;45.116;21.296;2024-02-15T15:02:49;333.40;2048.00
55008;DHT22;40902;45.116;21.296;2024-02-15T15:05:15;333.40;2073.60